sensor_id;sensor_type;location;lat;lon;timestamp;temperature;humidity
67942;SHT31;54731;42.600;23.476;2023-02-28T00:00:23;6.35;84.67
67942;SHT31;54731;42.600;23.476;2023-02-28T00:02:49;6.22;84.76
67942;SHT31;54731;42.600;23.476;2023-02-28T00:05:16;6.25;84.89
67942;SHT31;54731;42.600;23.476;2023-02-28T00:07:42;6.16;84.92
67942;SHT31;54731;42.600;23.476;2023-02-28T00:10:10;6.17;85.16
67942;SHT31;54731;42.600;23.476;2023-02-28T00:12:37;6.22;85.13
67942;SHT31;54731;42.600;23.476;2023-02-28T00:15:05;6.17;85.03
67942;SHT31;54731;42.600;23.476;2023-02-28T00:17:31;6.20;85.05
67942;SHT31;54731;42.600;23.476;2023-02-28T00:19:57;6.21;85.04
67942;SHT31;54731;42.600;23.476;2023-02-28T00:22:22;6.21;85.12
67942;SHT31;54731;42.600;23.476;2023-02-28T00:24:47;6.16;85.23
67942;SHT31;54731;42.600;23.476;2023-02-28T00:27:13;6.10;85.51
67942;SHT31;54731;42.600;23.476;2023-02-28T00:29:39;6.08;85.46
67942;SHT31;54731;42.600;23.476;2023-02-28T00:32:05;6.20;85.23
67942;SHT31;54731;42.600;23.476;2023-02-28T00:34:30;6.24;85.05
67942;SHT31;54731;42.600;23.476;2023-02-28T00:36:56;6.24;85.15
67942;SHT31;54731;42.600;23.476;2023-02-28T00:39:21;6.25;85.06
67942;SHT31;54731;42.600;23.476;2023-02-28T00:41:47;6.22;85.13
67942;SHT31;54731;42.600;23.476;2023-02-28T00:44:12;6.18;85.12
67942;SHT31;54731;42.600;23.476;2023-02-28T00:46:37;6.18;85.10
67942;SHT31;54731;42.600;23.476;2023-02-28T00:49:03;6.06;85.47
67942;SHT31;54731;42.600;23.476;2023-02-28T00:51:28;6.08;85.60
67942;SHT31;54731;42.600;23.476;2023-02-28T00:53:53;5.90;85.66
67942;SHT31;54731;42.600;23.476;2023-02-28T00:56:19;5.94;85.80
67942;SHT31;54731;42.600;23.476;2023-02-28T00:58:44;5.98;85.70
67942;SHT31;54731;42.600;23.476;2023-02-28T01:01:09;6.06;85.61
67942;SHT31;54731;42.600;23.476;2023-02-28T01:03:34;6.03;85.56
67942;SHT31;54731;42.600;23.476;2023-02-28T01:06:00;6.04;85.51
67942;SHT31;54731;42.600;23.476;2023-02-28T01:08:26;6.06;85.38
67942;SHT31;54731;42.600;23.476;2023-02-28T01:10:52;6.03;85.56
67942;SHT31;54731;42.600;23.476;2023-02-28T01:13:18;6.07;85.43
67942;SHT31;54731;42.600;23.476;2023-02-28T01:15:49;5.96;85.54
67942;SHT31;54731;42.600;23.476;2023-02-28T01:18:15;5.86;85.58
67942;SHT31;54731;42.600;23.476;2023-02-28T01:20:41;5.94;85.64
67942;SHT31;54731;42.600;23.476;2023-02-28T01:23:06;5.94;85.50
67942;SHT31;54731;42.600;23.476;2023-02-28T01:25:34;5.79;85.55
67942;SHT31;54731;42.600;23.476;2023-02-28T01:28:00;5.79;85.74
67942;SHT31;54731;42.600;23.476;2023-02-28T01:30:25;5.85;85.55
67942;SHT31;54731;42.600;23.476;2023-02-28T01:32:50;5.83;85.33
67942;SHT31;54731;42.600;23.476;2023-02-28T01:35:15;5.89;85.06
67942;SHT31;54731;42.600;23.476;2023-02-28T01:37:41;5.86;84.78
67942;SHT31;54731;42.600;23.476;2023-02-28T01:40:07;5.81;84.78
67942;SHT31;54731;42.600;23.476;2023-02-28T01:42:32;5.79;84.91
67942;SHT31;54731;42.600;23.476;2023-02-28T01:45:06;5.73;84.76
67942;SHT31;54731;42.600;23.476;2023-02-28T01:47:41;5.71;84.65
67942;SHT31;54731;42.600;23.476;2023-02-28T01:50:15;5.76;84.58
67942;SHT31;54731;42.600;23.476;2023-02-28T01:52:42;5.70;84.70
67942;SHT31;54731;42.600;23.476;2023-02-28T01:55:09;5.65;84.42
67942;SHT31;54731;42.600;23.476;2023-02-28T01:57:40;5.63;84.38
67942;SHT31;54731;42.600;23.476;2023-02-28T02:00:12;5.59;84.17
67942;SHT31;54731;42.600;23.476;2023-02-28T02:02:38;5.53;84.21
67942;SHT31;54731;42.600;23.476;2023-02-28T02:05:10;5.55;84.15
67942;SHT31;54731;42.600;23.476;2023-02-28T02:07:38;5.46;84.07
67942;SHT31;54731;42.600;23.476;2023-02-28T02:10:11;5.43;84.11
67942;SHT31;54731;42.600;23.476;2023-02-28T02:15:21;5.46;83.82
67942;SHT31;54731;42.600;23.476;2023-02-28T02:17:52;5.42;84.12
67942;SHT31;54731;42.600;23.476;2023-02-28T02:37:52;5.14;84.68
67942;SHT31;54731;42.600;23.476;2023-02-28T02:40:26;5.09;85.00
67942;SHT31;54731;42.600;23.476;2023-02-28T02:43:03;5.11;85.28
67942;SHT31;54731;42.600;23.476;2023-02-28T02:45:41;5.12;85.40
67942;SHT31;54731;42.600;23.476;2023-02-28T02:48:10;5.11;85.22
67942;SHT31;54731;42.600;23.476;2023-02-28T02:50:39;4.94;85.10
67942;SHT31;54731;42.600;23.476;2023-02-28T02:53:07;4.85;85.45
67942;SHT31;54731;42.600;23.476;2023-02-28T02:55:38;4.88;85.52
67942;SHT31;54731;42.600;23.476;2023-02-28T02:58:06;4.91;85.68
67942;SHT31;54731;42.600;23.476;2023-02-28T03:00:38;4.85;86.00
67942;SHT31;54731;42.600;23.476;2023-02-28T03:03:07;4.84;86.27
67942;SHT31;54731;42.600;23.476;2023-02-28T03:05:46;4.84;86.56
67942;SHT31;54731;42.600;23.476;2023-02-28T03:08:12;4.88;86.62
67942;SHT31;54731;42.600;23.476;2023-02-28T03:10:41;4.89;86.77
67942;SHT31;54731;42.600;23.476;2023-02-28T03:13:37;4.92;86.76
67942;SHT31;54731;42.600;23.476;2023-02-28T03:27:27;4.82;87.68
67942;SHT31;54731;42.600;23.476;2023-02-28T03:30:17;4.78;87.83
67942;SHT31;54731;42.600;23.476;2023-02-28T03:32:57;4.65;88.50
67942;SHT31;54731;42.600;23.476;2023-02-28T03:35:26;4.56;88.51
67942;SHT31;54731;42.600;23.476;2023-02-28T03:37:58;4.70;88.31
67942;SHT31;54731;42.600;23.476;2023-02-28T03:40:28;4.82;87.94
67942;SHT31;54731;42.600;23.476;2023-02-28T03:43:03;4.70;87.93
67942;SHT31;54731;42.600;23.476;2023-02-28T03:45:30;4.68;88.10
67942;SHT31;54731;42.600;23.476;2023-02-28T03:48:01;4.72;88.00
67942;SHT31;54731;42.600;23.476;2023-02-28T03:50:34;4.89;87.26
67942;SHT31;54731;42.600;23.476;2023-02-28T03:53:24;4.81;87.20
67942;SHT31;54731;42.600;23.476;2023-02-28T03:55:55;4.80;87.16
67942;SHT31;54731;42.600;23.476;2023-02-28T03:58:32;4.64;87.10
67942;SHT31;54731;42.600;23.476;2023-02-28T04:01:10;4.68;87.23
67942;SHT31;54731;42.600;23.476;2023-02-28T04:03:37;4.62;87.23
67942;SHT31;54731;42.600;23.476;2023-02-28T04:06:04;4.60;87.23
67942;SHT31;54731;42.600;23.476;2023-02-28T04:08:30;4.58;87.16
67942;SHT31;54731;42.600;23.476;2023-02-28T04:13:57;4.57;86.97
67942;SHT31;54731;42.600;23.476;2023-02-28T04:16:22;4.54;87.04
67942;SHT31;54731;42.600;23.476;2023-02-28T04:18:47;4.44;86.67
67942;SHT31;54731;42.600;23.476;2023-02-28T04:21:13;4.19;87.79
67942;SHT31;54731;42.600;23.476;2023-02-28T04:23:38;4.27;87.96
67942;SHT31;54731;42.600;23.476;2023-02-28T04:26:04;4.30;87.82
67942;SHT31;54731;42.600;23.476;2023-02-28T04:28:29;4.33;87.75
67942;SHT31;54731;42.600;23.476;2023-02-28T04:31:03;4.32;87.37
67942;SHT31;54731;42.600;23.476;2023-02-28T04:33:30;4.30;87.11
67942;SHT31;54731;42.600;23.476;2023-02-28T04:36:07;4.33;86.85
67942;SHT31;54731;42.600;23.476;2023-02-28T04:38:37;4.34;86.64
67942;SHT31;54731;42.600;23.476;2023-02-28T04:41:02;4.39;86.45
67942;SHT31;54731;42.600;23.476;2023-02-28T04:43:28;4.36;86.26
67942;SHT31;54731;42.600;23.476;2023-02-28T04:45:55;4.39;86.24
67942;SHT31;54731;42.600;23.476;2023-02-28T04:48:20;4.37;86.27
67942;SHT31;54731;42.600;23.476;2023-02-28T04:50:45;4.41;86.48
67942;SHT31;54731;42.600;23.476;2023-02-28T04:53:11;4.46;86.86
67942;SHT31;54731;42.600;23.476;2023-02-28T04:55:36;4.44;87.40
67942;SHT31;54731;42.600;23.476;2023-02-28T04:58:01;4.49;87.70
67942;SHT31;54731;42.600;23.476;2023-02-28T05:00:27;4.53;87.66
67942;SHT31;54731;42.600;23.476;2023-02-28T05:02:52;4.57;87.63
67942;SHT31;54731;42.600;23.476;2023-02-28T05:05:17;4.57;87.48
67942;SHT31;54731;42.600;23.476;2023-02-28T05:07:43;4.57;87.47
67942;SHT31;54731;42.600;23.476;2023-02-28T05:10:09;4.61;87.50
67942;SHT31;54731;42.600;23.476;2023-02-28T05:12:34;4.62;87.41
67942;SHT31;54731;42.600;23.476;2023-02-28T05:14:59;4.68;87.37
67942;SHT31;54731;42.600;23.476;2023-02-28T05:17:25;4.71;87.29
67942;SHT31;54731;42.600;23.476;2023-02-28T05:19:50;4.81;87.26
67942;SHT31;54731;42.600;23.476;2023-02-28T05:22:16;4.87;87.21
67942;SHT31;54731;42.600;23.476;2023-02-28T05:24:41;4.89;87.23
67942;SHT31;54731;42.600;23.476;2023-02-28T05:27:07;4.91;87.44
67942;SHT31;54731;42.600;23.476;2023-02-28T05:29:33;4.95;87.61
67942;SHT31;54731;42.600;23.476;2023-02-28T05:31:58;5.04;87.60
67942;SHT31;54731;42.600;23.476;2023-02-28T05:34:23;5.05;87.59
67942;SHT31;54731;42.600;23.476;2023-02-28T05:36:48;5.08;87.64
67942;SHT31;54731;42.600;23.476;2023-02-28T05:39:14;5.02;88.04
67942;SHT31;54731;42.600;23.476;2023-02-28T05:41:42;4.87;88.05
67942;SHT31;54731;42.600;23.476;2023-02-28T05:44:08;4.80;88.31
67942;SHT31;54731;42.600;23.476;2023-02-28T05:46:34;4.81;88.36
67942;SHT31;54731;42.600;23.476;2023-02-28T05:48:59;4.74;88.33
67942;SHT31;54731;42.600;23.476;2023-02-28T05:51:24;4.80;88.26
67942;SHT31;54731;42.600;23.476;2023-02-28T05:53:49;4.84;88.07
67942;SHT31;54731;42.600;23.476;2023-02-28T05:56:15;4.84;88.12
67942;SHT31;54731;42.600;23.476;2023-02-28T05:58:40;4.89;88.20
67942;SHT31;54731;42.600;23.476;2023-02-28T06:01:34;4.85;88.30
67942;SHT31;54731;42.600;23.476;2023-02-28T06:04:00;4.94;88.52
67942;SHT31;54731;42.600;23.476;2023-02-28T06:06:27;4.98;88.45
67942;SHT31;54731;42.600;23.476;2023-02-28T06:08:52;5.04;88.39
67942;SHT31;54731;42.600;23.476;2023-02-28T06:11:17;5.14;88.45
67942;SHT31;54731;42.600;23.476;2023-02-28T06:13:43;5.16;88.44
67942;SHT31;54731;42.600;23.476;2023-02-28T06:16:10;5.25;88.44
67942;SHT31;54731;42.600;23.476;2023-02-28T06:18:36;5.29;88.42
67942;SHT31;54731;42.600;23.476;2023-02-28T06:21:01;5.38;88.37
67942;SHT31;54731;42.600;23.476;2023-02-28T06:23:26;5.43;88.37
67942;SHT31;54731;42.600;23.476;2023-02-28T06:25:52;5.47;88.48
67942;SHT31;54731;42.600;23.476;2023-02-28T06:28:17;5.47;88.66
67942;SHT31;54731;42.600;23.476;2023-02-28T06:30:42;5.55;88.62
67942;SHT31;54731;42.600;23.476;2023-02-28T06:33:08;5.63;88.71
67942;SHT31;54731;42.600;23.476;2023-02-28T06:35:33;5.74;88.65
67942;SHT31;54731;42.600;23.476;2023-02-28T06:37:58;5.76;88.62
67942;SHT31;54731;42.600;23.476;2023-02-28T06:40:24;5.76;88.71
67942;SHT31;54731;42.600;23.476;2023-02-28T06:42:49;5.77;88.85
67942;SHT31;54731;42.600;23.476;2023-02-28T06:45:14;5.80;88.89
67942;SHT31;54731;42.600;23.476;2023-02-28T06:47:40;5.87;88.85
67942;SHT31;54731;42.600;23.476;2023-02-28T06:50:08;5.94;88.85
67942;SHT31;54731;42.600;23.476;2023-02-28T06:52:34;6.00;88.75
67942;SHT31;54731;42.600;23.476;2023-02-28T06:54:59;5.97;88.74
67942;SHT31;54731;42.600;23.476;2023-02-28T06:57:24;5.91;88.84
67942;SHT31;54731;42.600;23.476;2023-02-28T06:59:49;5.96;88.80
67942;SHT31;54731;42.600;23.476;2023-02-28T07:02:15;6.00;88.71
67942;SHT31;54731;42.600;23.476;2023-02-28T07:04:40;5.91;88.54
67942;SHT31;54731;42.600;23.476;2023-02-28T07:07:05;5.91;88.61
67942;SHT31;54731;42.600;23.476;2023-02-28T07:09:31;5.94;88.66
67942;SHT31;54731;42.600;23.476;2023-02-28T07:11:56;5.94;88.51
67942;SHT31;54731;42.600;23.476;2023-02-28T07:14:21;5.97;88.44
67942;SHT31;54731;42.600;23.476;2023-02-28T07:16:46;6.04;88.24
67942;SHT31;54731;42.600;23.476;2023-02-28T07:19:12;6.16;87.87
67942;SHT31;54731;42.600;23.476;2023-02-28T07:21:37;6.18;87.86
67942;SHT31;54731;42.600;23.476;2023-02-28T07:24:02;6.13;87.95
67942;SHT31;54731;42.600;23.476;2023-02-28T07:26:28;6.04;88.48
67942;SHT31;54731;42.600;23.476;2023-02-28T07:28:53;6.10;88.59
67942;SHT31;54731;42.600;23.476;2023-02-28T07:31:18;6.14;88.65
67942;SHT31;54731;42.600;23.476;2023-02-28T07:33:44;6.27;88.73
67942;SHT31;54731;42.600;23.476;2023-02-28T07:36:14;6.32;88.69
67942;SHT31;54731;42.600;23.476;2023-02-28T07:38:39;6.40;88.66
67942;SHT31;54731;42.600;23.476;2023-02-28T07:41:05;6.49;88.54
67942;SHT31;54731;42.600;23.476;2023-02-28T07:43:31;6.53;88.43
67942;SHT31;54731;42.600;23.476;2023-02-28T07:46:04;6.49;88.43
67942;SHT31;54731;42.600;23.476;2023-02-28T07:48:30;6.51;88.57
67942;SHT31;54731;42.600;23.476;2023-02-28T07:50:57;6.56;88.74
67942;SHT31;54731;42.600;23.476;2023-02-28T07:53:22;6.69;88.67
67942;SHT31;54731;42.600;23.476;2023-02-28T07:55:47;6.75;88.00
67942;SHT31;54731;42.600;23.476;2023-02-28T07:58:13;6.96;88.01
67942;SHT31;54731;42.600;23.476;2023-02-28T08:00:38;7.07;87.30
67942;SHT31;54731;42.600;23.476;2023-02-28T08:03:03;7.17;86.67
67942;SHT31;54731;42.600;23.476;2023-02-28T08:05:29;7.27;85.96
67942;SHT31;54731;42.600;23.476;2023-02-28T08:07:54;7.36;85.74
67942;SHT31;54731;42.600;23.476;2023-02-28T08:10:19;7.36;84.73
67942;SHT31;54731;42.600;23.476;2023-02-28T08:12:45;7.40;84.39
67942;SHT31;54731;42.600;23.476;2023-02-28T08:15:10;7.47;83.95
67942;SHT31;54731;42.600;23.476;2023-02-28T08:17:35;7.50;84.20
67942;SHT31;54731;42.600;23.476;2023-02-28T08:20:01;7.58;83.86
67942;SHT31;54731;42.600;23.476;2023-02-28T08:22:26;7.67;83.11
67942;SHT31;54731;42.600;23.476;2023-02-28T08:24:51;7.71;83.21
67942;SHT31;54731;42.600;23.476;2023-02-28T08:27:17;7.81;83.28
67942;SHT31;54731;42.600;23.476;2023-02-28T08:29:42;7.85;82.93
67942;SHT31;54731;42.600;23.476;2023-02-28T08:32:07;7.92;82.92
67942;SHT31;54731;42.600;23.476;2023-02-28T08:34:32;7.90;82.88
67942;SHT31;54731;42.600;23.476;2023-02-28T08:36:58;7.95;83.22
67942;SHT31;54731;42.600;23.476;2023-02-28T08:39:23;8.11;83.18
67942;SHT31;54731;42.600;23.476;2023-02-28T08:41:48;8.18;82.97
67942;SHT31;54731;42.600;23.476;2023-02-28T08:44:14;8.33;82.77
67942;SHT31;54731;42.600;23.476;2023-02-28T08:46:39;8.32;81.71
67942;SHT31;54731;42.600;23.476;2023-02-28T08:49:04;8.35;81.32
67942;SHT31;54731;42.600;23.476;2023-02-28T08:51:30;8.43;81.21
67942;SHT31;54731;42.600;23.476;2023-02-28T08:53:59;8.52;81.29
67942;SHT31;54731;42.600;23.476;2023-02-28T08:56:26;8.64;81.26
67942;SHT31;54731;42.600;23.476;2023-02-28T08:58:51;8.81;80.19
67942;SHT31;54731;42.600;23.476;2023-02-28T09:01:22;8.73;79.62
67942;SHT31;54731;42.600;23.476;2023-02-28T09:03:49;8.80;79.29
67942;SHT31;54731;42.600;23.476;2023-02-28T09:06:15;8.81;79.30
67942;SHT31;54731;42.600;23.476;2023-02-28T09:08:41;8.90;79.28
67942;SHT31;54731;42.600;23.476;2023-02-28T09:11:07;9.03;79.16
67942;SHT31;54731;42.600;23.476;2023-02-28T09:13:33;9.10;77.92
67942;SHT31;54731;42.600;23.476;2023-02-28T09:16:00;9.07;77.85
67942;SHT31;54731;42.600;23.476;2023-02-28T09:18:26;9.16;78.05
67942;SHT31;54731;42.600;23.476;2023-02-28T09:20:52;9.27;78.17
67942;SHT31;54731;42.600;23.476;2023-02-28T09:23:17;9.34;78.43
67942;SHT31;54731;42.600;23.476;2023-02-28T09:25:51;9.38;78.03
67942;SHT31;54731;42.600;23.476;2023-02-28T09:28:17;9.49;77.27
67942;SHT31;54731;42.600;23.476;2023-02-28T09:30:48;9.52;76.26
67942;SHT31;54731;42.600;23.476;2023-02-28T09:33:15;9.57;76.47
67942;SHT31;54731;42.600;23.476;2023-02-28T09:35:40;9.49;76.28
67942;SHT31;54731;42.600;23.476;2023-02-28T09:38:06;9.57;76.20
67942;SHT31;54731;42.600;23.476;2023-02-28T09:40:35;9.52;76.10
67942;SHT31;54731;42.600;23.476;2023-02-28T09:43:01;9.47;76.40
67942;SHT31;54731;42.600;23.476;2023-02-28T09:45:39;9.47;76.91
67942;SHT31;54731;42.600;23.476;2023-02-28T09:48:31;9.68;76.46
67942;SHT31;54731;42.600;23.476;2023-02-28T09:51:12;9.69;75.97
67942;SHT31;54731;42.600;23.476;2023-02-28T09:53:40;9.51;75.83
67942;SHT31;54731;42.600;23.476;2023-02-28T09:56:12;9.47;76.09
67942;SHT31;54731;42.600;23.476;2023-02-28T09:58:47;9.38;76.81
67942;SHT31;54731;42.600;23.476;2023-02-28T10:01:39;9.54;75.96
67942;SHT31;54731;42.600;23.476;2023-02-28T10:04:10;9.67;76.08
67942;SHT31;54731;42.600;23.476;2023-02-28T10:06:46;9.69;75.67
67942;SHT31;54731;42.600;23.476;2023-02-28T10:09:18;9.77;75.81
67942;SHT31;54731;42.600;23.476;2023-02-28T10:11:45;9.81;75.60
67942;SHT31;54731;42.600;23.476;2023-02-28T10:14:21;9.91;75.48
67942;SHT31;54731;42.600;23.476;2023-02-28T10:17:01;10.06;74.93
67942;SHT31;54731;42.600;23.476;2023-02-28T10:22:19;10.10;74.60
67942;SHT31;54731;42.600;23.476;2023-02-28T10:24:48;10.10;74.84
67942;SHT31;54731;42.600;23.476;2023-02-28T10:27:24;10.14;74.50
67942;SHT31;54731;42.600;23.476;2023-02-28T10:29:58;10.06;74.01
67942;SHT31;54731;42.600;23.476;2023-02-28T10:32:26;10.10;73.79
67942;SHT31;54731;42.600;23.476;2023-02-28T10:37:40;9.89;74.71
67942;SHT31;54731;42.600;23.476;2023-02-28T10:40:07;9.71;74.20
67942;SHT31;54731;42.600;23.476;2023-02-28T10:45:25;10.05;75.00
67942;SHT31;54731;42.600;23.476;2023-02-28T10:48:01;9.98;74.62
67942;SHT31;54731;42.600;23.476;2023-02-28T10:56:02;10.36;74.06
67942;SHT31;54731;42.600;23.476;2023-02-28T11:03:41;10.54;73.98
67942;SHT31;54731;42.600;23.476;2023-02-28T11:06:13;10.47;73.06
67942;SHT31;54731;42.600;23.476;2023-02-28T11:08:49;10.46;73.86
67942;SHT31;54731;42.600;23.476;2023-02-28T11:11:15;10.46;72.91
67942;SHT31;54731;42.600;23.476;2023-02-28T11:13:41;10.36;73.85
67942;SHT31;54731;42.600;23.476;2023-02-28T11:16:11;10.24;74.10
67942;SHT31;54731;42.600;23.476;2023-02-28T11:18:52;10.19;74.48
67942;SHT31;54731;42.600;23.476;2023-02-28T11:21:31;10.17;74.16
67942;SHT31;54731;42.600;23.476;2023-02-28T11:26:44;10.34;74.60
67942;SHT31;54731;42.600;23.476;2023-02-28T11:29:23;10.53;73.63
67942;SHT31;54731;42.600;23.476;2023-02-28T11:34:38;10.26;74.33
67942;SHT31;54731;42.600;23.476;2023-02-28T11:37:08;10.26;74.15
67942;SHT31;54731;42.600;23.476;2023-02-28T11:39:35;10.29;73.92
67942;SHT31;54731;42.600;23.476;2023-02-28T11:50:40;10.26;74.68
67942;SHT31;54731;42.600;23.476;2023-02-28T11:56:12;10.49;73.63
67942;SHT31;54731;42.600;23.476;2023-02-28T12:06:55;10.56;73.51
67942;SHT31;54731;42.600;23.476;2023-02-28T12:12:21;10.64;73.20
67942;SHT31;54731;42.600;23.476;2023-02-28T12:22:48;11.12;71.53
67942;SHT31;54731;42.600;23.476;2023-02-28T12:25:21;11.01;71.53
67942;SHT31;54731;42.600;23.476;2023-02-28T12:27:48;11.10;70.85
67942;SHT31;54731;42.600;23.476;2023-02-28T12:30:25;11.18;69.96
67942;SHT31;54731;42.600;23.476;2023-02-28T12:33:01;10.91;70.46
67942;SHT31;54731;42.600;23.476;2023-02-28T12:35:38;10.77;71.08
67942;SHT31;54731;42.600;23.476;2023-02-28T12:38:10;10.84;71.34
67942;SHT31;54731;42.600;23.476;2023-02-28T12:40:44;10.93;70.47
67942;SHT31;54731;42.600;23.476;2023-02-28T12:43:13;10.83;70.51
67942;SHT31;54731;42.600;23.476;2023-02-28T12:45:46;11.00;70.99
67942;SHT31;54731;42.600;23.476;2023-02-28T12:48:17;11.12;70.44
67942;SHT31;54731;42.600;23.476;2023-02-28T12:50:43;11.18;70.62
67942;SHT31;54731;42.600;23.476;2023-02-28T12:56:32;11.11;70.03
67942;SHT31;54731;42.600;23.476;2023-02-28T12:59:05;11.08;70.35
67942;SHT31;54731;42.600;23.476;2023-02-28T13:04:46;10.83;70.64
67942;SHT31;54731;42.600;23.476;2023-02-28T13:10:04;10.75;70.76
67942;SHT31;54731;42.600;23.476;2023-02-28T13:12:30;10.75;71.17
67942;SHT31;54731;42.600;23.476;2023-02-28T13:15:28;10.88;70.80
67942;SHT31;54731;42.600;23.476;2023-02-28T13:17:56;10.87;71.30
67942;SHT31;54731;42.600;23.476;2023-02-28T13:22:53;10.50;71.88
67942;SHT31;54731;42.600;23.476;2023-02-28T13:27:50;10.53;71.46
67942;SHT31;54731;42.600;23.476;2023-02-28T13:33:36;10.49;71.90
67942;SHT31;54731;42.600;23.476;2023-02-28T13:38:41;10.61;71.42
67942;SHT31;54731;42.600;23.476;2023-02-28T13:44:21;10.16;72.59
67942;SHT31;54731;42.600;23.476;2023-02-28T13:49:33;10.01;73.39
67942;SHT31;54731;42.600;23.476;2023-02-28T14:05:19;9.79;74.28
67942;SHT31;54731;42.600;23.476;2023-02-28T14:07:49;9.71;74.75
67942;SHT31;54731;42.600;23.476;2023-02-28T14:10:33;9.41;75.43
67942;SHT31;54731;42.600;23.476;2023-02-28T14:13:10;9.54;75.46
67942;SHT31;54731;42.600;23.476;2023-02-28T14:18:29;9.77;74.47
67942;SHT31;54731;42.600;23.476;2023-02-28T14:21:23;9.79;74.18
67942;SHT31;54731;42.600;23.476;2023-02-28T14:29:47;9.42;75.33
67942;SHT31;54731;42.600;23.476;2023-02-28T14:32:25;9.39;75.42
67942;SHT31;54731;42.600;23.476;2023-02-28T14:37:27;9.38;75.33
67942;SHT31;54731;42.600;23.476;2023-02-28T14:39:53;9.34;75.34
67942;SHT31;54731;42.600;23.476;2023-02-28T14:42:32;9.28;75.53
67942;SHT31;54731;42.600;23.476;2023-02-28T14:44:57;9.08;76.08
67942;SHT31;54731;42.600;23.476;2023-02-28T14:47:27;9.00;76.58
67942;SHT31;54731;42.600;23.476;2023-02-28T14:49:53;8.77;77.41
67942;SHT31;54731;42.600;23.476;2023-02-28T14:52:26;8.86;77.36
67942;SHT31;54731;42.600;23.476;2023-02-28T14:54:55;8.81;77.51
67942;SHT31;54731;42.600;23.476;2023-02-28T14:57:29;8.91;77.22
67942;SHT31;54731;42.600;23.476;2023-02-28T15:02:38;8.97;77.10
67942;SHT31;54731;42.600;23.476;2023-02-28T15:07:35;9.00;76.52
67942;SHT31;54731;42.600;23.476;2023-02-28T15:13:11;8.83;77.04
67942;SHT31;54731;42.600;23.476;2023-02-28T15:15:41;8.81;76.80
67942;SHT31;54731;42.600;23.476;2023-02-28T15:18:19;8.76;76.84
67942;SHT31;54731;42.600;23.476;2023-02-28T15:20:48;8.62;77.22
67942;SHT31;54731;42.600;23.476;2023-02-28T15:23:15;8.59;77.42
67942;SHT31;54731;42.600;23.476;2023-02-28T15:25:41;8.52;77.45
67942;SHT31;54731;42.600;23.476;2023-02-28T15:28:12;8.29;77.97
67942;SHT31;54731;42.600;23.476;2023-02-28T15:31:00;8.29;78.52
67942;SHT31;54731;42.600;23.476;2023-02-28T15:33:28;8.39;77.80
67942;SHT31;54731;42.600;23.476;2023-02-28T15:36:16;8.29;78.19
67942;SHT31;54731;42.600;23.476;2023-02-28T15:38:43;8.24;78.39
67942;SHT31;54731;42.600;23.476;2023-02-28T15:41:29;8.26;78.29
67942;SHT31;54731;42.600;23.476;2023-02-28T15:46:50;8.26;78.33
67942;SHT31;54731;42.600;23.476;2023-02-28T15:49:20;8.24;78.18
67942;SHT31;54731;42.600;23.476;2023-02-28T15:51:49;8.24;78.52
67942;SHT31;54731;42.600;23.476;2023-02-28T15:54:29;7.99;78.95
67942;SHT31;54731;42.600;23.476;2023-02-28T15:57:03;7.81;79.62
67942;SHT31;54731;42.600;23.476;2023-02-28T15:59:30;7.70;79.90
67942;SHT31;54731;42.600;23.476;2023-02-28T16:02:17;7.73;80.53
67942;SHT31;54731;42.600;23.476;2023-02-28T16:05:22;7.85;79.91
67942;SHT31;54731;42.600;23.476;2023-02-28T16:07:45;7.98;79.49
67942;SHT31;54731;42.600;23.476;2023-02-28T16:10:12;8.08;79.27
67942;SHT31;54731;42.600;23.476;2023-02-28T16:12:38;8.16;79.25
67942;SHT31;54731;42.600;23.476;2023-02-28T16:15:25;8.16;78.92
67942;SHT31;54731;42.600;23.476;2023-02-28T16:17:50;8.16;78.61
67942;SHT31;54731;42.600;23.476;2023-02-28T16:20:22;8.19;78.61
67942;SHT31;54731;42.600;23.476;2023-02-28T16:22:48;8.19;78.40
67942;SHT31;54731;42.600;23.476;2023-02-28T16:25:15;8.16;78.47
67942;SHT31;54731;42.600;23.476;2023-02-28T16:27:41;8.15;78.58
67942;SHT31;54731;42.600;23.476;2023-02-28T16:30:15;8.19;78.41
67942;SHT31;54731;42.600;23.476;2023-02-28T16:32:42;8.13;78.52
67942;SHT31;54731;42.600;23.476;2023-02-28T16:35:10;7.99;78.83
67942;SHT31;54731;42.600;23.476;2023-02-28T16:37:35;8.01;79.01
67942;SHT31;54731;42.600;23.476;2023-02-28T16:40:00;8.03;78.79
67942;SHT31;54731;42.600;23.476;2023-02-28T16:42:28;7.88;79.30
67942;SHT31;54731;42.600;23.476;2023-02-28T16:44:54;7.97;79.04
67942;SHT31;54731;42.600;23.476;2023-02-28T16:47:20;7.90;79.27
67942;SHT31;54731;42.600;23.476;2023-02-28T16:49:46;7.88;78.95
67942;SHT31;54731;42.600;23.476;2023-02-28T16:52:11;7.82;78.63
67942;SHT31;54731;42.600;23.476;2023-02-28T16:54:37;7.92;78.20
67942;SHT31;54731;42.600;23.476;2023-02-28T16:57:03;7.94;77.96
67942;SHT31;54731;42.600;23.476;2023-02-28T16:59:29;7.90;77.99
67942;SHT31;54731;42.600;23.476;2023-02-28T17:01:55;7.84;77.90
67942;SHT31;54731;42.600;23.476;2023-02-28T17:04:21;7.90;77.73
67942;SHT31;54731;42.600;23.476;2023-02-28T17:06:46;7.85;77.46
67942;SHT31;54731;42.600;23.476;2023-02-28T17:09:20;7.85;77.25
67942;SHT31;54731;42.600;23.476;2023-02-28T17:11:45;7.71;77.88
67942;SHT31;54731;42.600;23.476;2023-02-28T17:14:11;7.74;78.17
67942;SHT31;54731;42.600;23.476;2023-02-28T17:16:37;7.64;78.63
67942;SHT31;54731;42.600;23.476;2023-02-28T17:19:05;7.56;79.29
67942;SHT31;54731;42.600;23.476;2023-02-28T17:21:31;7.58;79.28
67942;SHT31;54731;42.600;23.476;2023-02-28T17:23:57;7.50;79.34
67942;SHT31;54731;42.600;23.476;2023-02-28T17:26:23;7.57;79.31
67942;SHT31;54731;42.600;23.476;2023-02-28T17:28:48;7.56;79.35
67942;SHT31;54731;42.600;23.476;2023-02-28T17:31:14;7.53;79.47
67942;SHT31;54731;42.600;23.476;2023-02-28T17:33:40;7.54;79.40
67942;SHT31;54731;42.600;23.476;2023-02-28T17:36:06;7.51;79.39
67942;SHT31;54731;42.600;23.476;2023-02-28T17:38:31;7.54;79.38
67942;SHT31;54731;42.600;23.476;2023-02-28T17:40:56;7.57;78.71
67942;SHT31;54731;42.600;23.476;2023-02-28T17:43:23;7.54;78.59
67942;SHT31;54731;42.600;23.476;2023-02-28T17:45:49;7.56;77.85
67942;SHT31;54731;42.600;23.476;2023-02-28T17:48:14;7.46;77.99
67942;SHT31;54731;42.600;23.476;2023-02-28T17:50:40;7.48;78.24
67942;SHT31;54731;42.600;23.476;2023-02-28T17:53:05;7.44;78.11
67942;SHT31;54731;42.600;23.476;2023-02-28T17:55:30;7.43;78.22
67942;SHT31;54731;42.600;23.476;2023-02-28T17:57:56;7.36;78.24
67942;SHT31;54731;42.600;23.476;2023-02-28T18:00:21;7.36;78.22
67942;SHT31;54731;42.600;23.476;2023-02-28T18:02:47;7.33;78.58
67942;SHT31;54731;42.600;23.476;2023-02-28T18:05:12;7.31;78.62
67942;SHT31;54731;42.600;23.476;2023-02-28T18:07:38;7.22;78.68
67942;SHT31;54731;42.600;23.476;2023-02-28T18:10:05;7.13;79.03